Time;durP1;ratioP1;P1;durP2;ratioP2;P2;SDS_P1;SDS_P2;PMS_P1;PMS_P2;Temp;Humidity;BMP_temperature;BMP_pressure;BME280_temperature;BME280_humidity;BME280_pressure;Samples;Min_cycle;Max_cycle;Signal;HPM_P1;HPM_P2
2023/09/26 03:30:44;;;;;;;3.00;2.80;;;9.80;99.90;;;;;;6085426;22;20380;-66
2023/09/26 03:33:11;;;;;;;2.92;2.65;;;9.70;99.90;;;;;;5007916;28;20207;-67
2023/09/26 03:35:38;;;;;;;3.97;2.90;;;9.70;99.90;;;;;;5008867;28;20200;-67
2023/09/26 03:38:05;;;;;;;3.50;3.10;;;9.70;99.90;;;;;;5010634;28;20207;-66
2023/09/26 03:40:31;;;;;;;5.38;3.05;;;9.70;99.90;;;;;;5013466;28;20214;-68
2023/09/26 03:42:58;;;;;;;3.22;2.80;;;9.70;99.90;;;;;;5025161;28;20210;-68
2023/09/26 03:45:25;;;;;;;3.88;3.13;;;9.70;99.90;;;;;;5025949;28;20209;-67
2023/09/26 03:47:53;;;;;;;4.25;3.38;;;9.70;99.90;;;;;;5025421;28;20670;-67
2023/09/26 03:50:20;;;;;;;3.28;2.90;;;9.60;99.90;;;;;;5025780;28;20213;-66
2023/09/26 03:52:47;;;;;;;3.17;2.88;;;9.60;99.90;;;;;;5026507;28;20565;-66
2023/09/26 03:55:14;;;;;;;4.63;2.97;;;9.60;99.90;;;;;;5024691;28;20672;-65
2023/09/26 03:57:41;;;;;;;2.97;2.78;;;9.60;99.90;;;;;;5026522;28;20202;-66
2023/09/26 04:00:16;;;;;;;3.60;3.30;;;9.60;99.90;;;;;;5023875;28;20614;-67
2023/09/26 04:02:44;;;;;;;3.50;3.20;;;9.60;99.90;;;;;;5026903;28;20293;-66
2023/09/26 04:05:12;;;;;;;3.80;2.80;;;9.60;99.90;;;;;;5024815;28;20232;-66
2023/09/26 04:07:39;;;;;;;3.50;3.15;;;9.60;99.90;;;;;;5028420;28;20683;-66
2023/09/26 04:10:07;;;;;;;2.72;2.50;;;9.60;99.90;;;;;;5029649;28;20206;-66
2023/09/26 04:12:33;;;;;;;3.30;2.80;;;9.50;99.90;;;;;;5030169;28;20221;-67
2023/09/26 04:15:00;;;;;;;3.22;2.92;;;9.50;99.90;;;;;;5029359;28;20213;-66
2023/09/26 04:17:29;;;;;;;3.53;2.28;;;9.50;99.90;;;;;;5025399;28;20208;-67
2023/09/26 04:19:57;;;;;;;3.22;2.75;;;9.50;99.90;;;;;;5027454;28;20227;-67
2023/09/26 04:22:25;;;;;;;3.10;2.80;;;9.40;99.90;;;;;;5026432;28;20453;-66
2023/09/26 04:24:52;;;;;;;3.80;2.85;;;9.40;99.90;;;;;;5029966;28;20233;-68
2023/09/26 04:27:19;;;;;;;2.60;2.40;;;9.40;99.90;;;;;;5031349;28;20202;-68
2023/09/26 04:29:46;;;;;;;3.10;2.20;;;9.40;99.90;;;;;;5031124;28;20229;-67
2023/09/26 04:32:12;;;;;;;3.35;3.05;;;9.40;99.90;;;;;;5028865;28;20229;-66
2023/09/26 04:34:39;;;;;;;2.70;2.50;;;9.40;99.90;;;;;;5028097;28;20584;-67
2023/09/26 04:37:07;;;;;;;3.20;2.90;;;9.30;99.90;;;;;;5030170;28;20218;-66
2023/09/26 04:39:35;;;;;;;3.25;2.95;;;9.30;99.90;;;;;;5031327;28;20201;-67
2023/09/26 04:42:02;;;;;;;6.20;2.90;;;9.30;99.90;;;;;;5030199;28;20231;-67
2023/09/26 04:44:28;;;;;;;3.20;2.90;;;9.30;99.90;;;;;;5032330;28;20218;-67
2023/09/26 04:46:55;;;;;;;4.75;3.33;;;9.30;99.90;;;;;;5032650;28;20206;-67
2023/09/26 04:49:22;;;;;;;3.05;2.50;;;9.20;99.90;;;;;;5032737;28;20256;-67
2023/09/26 04:51:49;;;;;;;2.78;2.58;;;9.20;99.90;;;;;;5032577;28;20229;-67
2023/09/26 04:54:15;;;;;;;3.30;3.00;;;9.20;99.90;;;;;;5032143;28;20213;-67
2023/09/26 04:56:43;;;;;;;2.00;1.70;;;9.20;99.90;;;;;;5032598;28;20255;-66
2023/09/26 04:59:10;;;;;;;4.47;2.90;;;9.20;99.90;;;;;;5031056;28;20210;-66
2023/09/26 05:01:37;;;;;;;3.00;2.30;;;9.20;99.90;;;;;;5031548;28;20221;-67
2023/09/26 05:04:04;;;;;;;2.67;2.25;;;9.20;99.90;;;;;;5030298;28;20221;-67
2023/09/26 05:06:31;;;;;;;3.42;2.67;;;9.10;99.90;;;;;;5031611;28;20264;-67
2023/09/26 05:08:57;;;;;;;3.03;2.75;;;9.10;99.90;;;;;;5031116;28;20216;-67
2023/09/26 05:11:26;;;;;;;3.30;3.00;;;9.10;99.90;;;;;;5031271;28;20226;-68
2023/09/26 05:13:54;;;;;;;3.05;2.75;;;9.10;99.90;;;;;;5030954;28;20678;-67
2023/09/26 05:16:20;;;;;;;3.45;2.78;;;9.10;99.90;;;;;;5030953;28;20207;-67
2023/09/26 05:18:47;;;;;;;6.00;2.70;;;9.00;99.90;;;;;;5031583;28;20206;-67
2023/09/26 05:21:14;;;;;;;3.03;2.72;;;9.00;99.90;;;;;;5030965;28;20230;-67
2023/09/26 05:23:41;;;;;;;3.17;2.88;;;9.00;99.90;;;;;;5031085;28;20709;-67
2023/09/26 05:26:09;;;;;;;2.53;2.22;;;9.00;99.90;;;;;;5030881;28;20292;-67
2023/09/26 05:28:35;;;;;;;2.78;2.55;;;9.20;99.90;;;;;;5031765;28;20210;-67
2023/09/26 05:31:04;;;;;;;3.10;2.90;;;9.30;99.90;;;;;;5030986;28;20233;-67
2023/09/26 05:33:32;;;;;;;3.40;3.10;;;9.40;99.90;;;;;;5031482;28;20263;-67
2023/09/26 05:35:58;;;;;;;3.95;3.55;;;9.60;99.90;;;;;;5030954;28;20205;-67
2023/09/26 05:38:25;;;;;;;4.55;2.53;;;9.70;99.90;;;;;;5031736;28;20210;-67
2023/09/26 05:40:52;;;;;;;2.80;2.60;;;9.70;99.90;;;;;;5031621;28;20295;-67
2023/09/26 05:43:19;;;;;;;2.97;2.70;;;9.80;99.90;;;;;;5031342;28;20229;-67
2023/09/26 05:45:49;;;;;;;3.20;2.88;;;9.90;99.90;;;;;;5031228;28;20230;-67
2023/09/26 05:48:17;;;;;;;3.20;2.78;;;9.90;99.90;;;;;;5031644;28;20206;-67
2023/09/26 05:50:44;;;;;;;3.20;2.90;;;10.00;99.90;;;;;;5031760;28;20240;-67
2023/09/26 05:53:11;;;;;;;3.20;2.90;;;10.10;99.90;;;;;;5031628;28;20206;-67
2023/09/26 05:55:38;;;;;;;3.20;2.47;;;10.10;99.90;;;;;;5031348;28;20208;-67
2023/09/26 05:58:05;;;;;;;3.60;2.90;;;10.20;99.90;;;;;;5031742;28;20217;-67
2023/09/26 06:00:32;;;;;;;3.63;3.25;;;10.20;99.90;;;;;;5019704;28;20211;-67
2023/09/26 06:02:58;;;;;;;3.30;2.78;;;10.20;99.90;;;;;;5011908;28;20206;-67
2023/09/26 06:05:27;;;;;;;3.47;2.80;;;10.30;99.90;;;;;;5011766;28;20565;-67
2023/09/26 06:07:54;;;;;;;3.40;3.10;;;10.40;99.90;;;;;;5012131;28;20214;-67
2023/09/26 06:10:21;;;;;;;4.95;3.70;;;10.50;99.90;;;;;;5012287;28;20224;-67
2023/09/26 06:12:48;;;;;;;2.92;2.65;;;10.50;99.90;;;;;;5012130;28;20219;-67
2023/09/26 06:15:14;;;;;;;4.10;3.08;;;10.60;99.90;;;;;;5012140;28;20245;-67
2023/09/26 06:17:41;;;;;;;2.50;2.30;;;10.60;99.90;;;;;;5012232;28;20215;-67
2023/09/26 06:20:10;;;;;;;4.38;3.05;;;10.70;99.90;;;;;;5012429;28;20214;-67
2023/09/26 06:22:38;;;;;;;3.45;3.10;;;10.60;99.90;;;;;;5012249;28;20278;-67
2023/09/26 06:25:05;;;;;;;3.97;3.55;;;10.70;99.90;;;;;;5012082;28;20226;-67
2023/09/26 06:27:35;;;;;;;3.35;2.60;;;10.70;99.90;;;;;;5012520;28;20206;-67
2023/09/26 06:30:02;;;;;;;3.38;3.08;;;10.80;99.90;;;;;;5011953;28;20265;-67
2023/09/26 06:32:29;;;;;;;3.28;2.97;;;10.90;99.90;;;;;;5020097;28;20313;-67
2023/09/26 06:34:58;;;;;;;3.70;3.20;;;11.00;99.90;;;;;;5011799;28;20210;-67
2023/09/26 06:37:25;;;;;;;3.78;3.40;;;11.00;99.90;;;;;;5013682;28;20207;-67
2023/09/26 06:39:58;;;;;;;3.47;2.80;;;11.00;99.90;;;;;;5011655;28;20583;-67
2023/09/26 06:42:25;;;;;;;4.30;3.47;;;10.90;99.90;;;;;;5011636;28;20287;-67
2023/09/26 06:44:52;;;;;;;3.25;2.80;;;10.90;99.90;;;;;;5010590;28;20305;-67
2023/09/26 06:47:19;;;;;;;5.65;3.75;;;10.90;99.90;;;;;;5011248;28;20206;-67
2023/09/26 06:49:46;;;;;;;3.80;3.40;;;10.90;99.90;;;;;;5012772;28;20199;-67
2023/09/26 06:52:13;;;;;;;4.00;3.67;;;10.90;99.90;;;;;;5013047;28;20223;-67
2023/09/26 06:54:40;;;;;;;4.63;3.83;;;11.00;99.90;;;;;;5012015;28;20204;-67
2023/09/26 06:57:09;;;;;;;4.43;3.47;;;11.10;99.90;;;;;;5013318;28;20209;-67
2023/09/26 06:59:36;;;;;;;3.33;3.00;;;11.30;99.90;;;;;;5012808;28;20259;-67
2023/09/26 07:02:03;;;;;;;3.65;3.35;;;11.40;99.90;;;;;;5012766;28;20240;-67
2023/09/26 07:04:30;;;;;;;4.93;3.72;;;11.60;99.90;;;;;;5012532;28;20579;-67
2023/09/26 07:06:56;;;;;;;4.93;4.53;;;11.80;99.90;;;;;;5012708;28;20688;-67
2023/09/26 07:09:23;;;;;;;3.55;3.25;;;11.90;99.90;;;;;;5014319;28;20208;-67
2023/09/26 07:11:52;;;;;;;4.10;3.72;;;12.10;99.90;;;;;;5016984;28;20228;-67
2023/09/26 07:14:21;;;;;;;3.95;3.65;;;12.30;99.90;;;;;;5013026;28;20231;-67
2023/09/26 07:16:48;;;;;;;4.30;3.90;;;12.50;99.90;;;;;;5020382;28;20208;-67
2023/09/26 07:19:15;;;;;;;4.35;3.95;;;12.80;99.90;;;;;;5013715;28;20210;-67
2023/09/26 07:21:41;;;;;;;4.27;3.63;;;13.10;99.90;;;;;;5012570;28;20309;-67
2023/09/26 07:24:09;;;;;;;4.93;4.00;;;13.30;99.90;;;;;;5013047;28;20461;-67
2023/09/26 07:26:36;;;;;;;4.07;3.40;;;13.40;99.90;;;;;;5019699;28;20523;-68
2023/09/26 07:29:03;;;;;;;3.77;3.47;;;13.70;99.90;;;;;;5025617;28;20471;-68
2023/09/26 07:31:33;;;;;;;4.07;3.47;;;13.90;99.90;;;;;;5029134;28;20550;-68
2023/09/26 07:34:00;;;;;;;5.47;3.57;;;14.20;99.90;;;;;;5016328;28;20473;-67
2023/09/26 07:36:28;;;;;;;3.47;3.17;;;14.40;99.90;;;;;;5027527;28;20943;-67
2023/09/26 07:38:55;;;;;;;4.23;3.50;;;14.60;99.90;;;;;;5015924;28;20552;-67
2023/09/26 07:41:22;;;;;;;3.97;3.63;;;14.80;99.90;;;;;;5014700;28;20480;-67
2023/09/26 07:43:50;;;;;;;3.73;3.40;;;15.10;99.90;;;;;;5019852;28;20481;-67
2023/09/26 07:46:18;;;;;;;3.33;3.03;;;15.30;99.90;;;;;;5014645;28;20490;-67
2023/09/26 07:48:47;;;;;;;3.33;3.03;;;15.50;99.90;;;;;;5013292;28;20473;-67
2023/09/26 07:51:16;;;;;;;3.37;2.70;;;15.70;99.90;;;;;;5015163;28;20486;-67
2023/09/26 07:53:44;;;;;;;3.23;2.93;;;15.90;99.90;;;;;;5018892;28;20469;-68
2023/09/26 07:56:13;;;;;;;2.90;2.60;;;16.00;99.90;;;;;;5022018;28;20467;-67
2023/09/26 07:58:40;;;;;;;2.97;2.67;;;16.20;99.90;;;;;;5021783;28;20950;-67
2023/09/26 08:01:08;;;;;;;3.13;2.80;;;16.30;99.90;;;;;;5017734;28;20508;-67
2023/09/26 08:03:35;;;;;;;2.67;2.47;;;16.40;99.90;;;;;;5017314;28;20466;-67
2023/09/26 08:06:05;;;;;;;3.40;2.97;;;16.40;99.90;;;;;;5017095;28;20496;-67
2023/09/26 08:08:32;;;;;;;5.80;3.20;;;16.60;99.90;;;;;;5017836;28;20478;-67
2023/09/26 08:11:07;;;;;;;3.10;2.70;;;16.70;99.90;;;;;;5017221;28;20507;-67
2023/09/26 08:13:34;;;;;;;2.97;2.67;;;16.90;99.90;;;;;;5017068;28;20545;-67
2023/09/26 08:16:00;;;;;;;2.90;2.53;;;17.20;99.90;;;;;;5017224;28;20911;-67
2023/09/26 08:18:27;;;;;;;3.97;3.17;;;17.40;99.90;;;;;;5017230;28;20467;-67
2023/09/26 08:20:57;;;;;;;3.40;3.10;;;17.60;99.90;;;;;;5017400;28;20483;-67
2023/09/26 08:23:25;;;;;;;4.00;3.23;;;17.80;99.90;;;;;;5019067;28;20568;-67
2023/09/26 08:25:56;;;;;;;3.37;3.07;;;18.00;99.90;;;;;;5017180;28;20549;-67
2023/09/26 08:28:23;;;;;;;4.80;3.50;;;18.10;99.90;;;;;;5019055;28;20527;-67
2023/09/26 08:30:50;;;;;;;3.67;3.30;;;18.30;99.90;;;;;;5016946;28;20500;-67
2023/09/26 08:33:16;;;;;;;2.87;2.50;;;18.50;99.90;;;;;;5018918;28;20881;-67
2023/09/26 08:35:43;;;;;;;3.30;2.90;;;18.60;99.90;;;;;;5017076;28;20472;-67
2023/09/26 08:38:10;;;;;;;3.33;3.00;;;18.80;99.90;;;;;;5018908;28;20468;-67
2023/09/26 08:40:39;;;;;;;3.30;3.10;;;19.00;99.90;;;;;;5018126;28;20496;-67
2023/09/26 08:43:06;;;;;;;4.80;3.20;;;19.10;99.90;;;;;;5018336;28;20468;-67
2023/09/26 08:45:34;;;;;;;4.10;3.00;;;19.20;99.90;;;;;;5018061;28;20484;-67
2023/09/26 08:48:01;;;;;;;3.97;3.57;;;19.30;99.90;;;;;;5017362;28;20588;-67
2023/09/26 08:50:28;;;;;;;3.73;3.43;;;19.40;99.90;;;;;;5017482;28;20456;-67
2023/09/26 08:52:58;;;;;;;4.07;3.67;;;19.60;99.90;;;;;;5017208;28;20464;-67
2023/09/26 08:55:25;;;;;;;3.10;2.80;;;19.70;99.90;;;;;;5019375;28;20459;-67
2023/09/26 08:57:55;;;;;;;4.33;3.70;;;19.80;99.90;;;;;;5020935;28;20983;-67
2023/09/26 09:00:24;;;;;;;4.07;3.07;;;20.00;99.90;;;;;;5025494;28;20453;-67
2023/09/26 09:02:51;;;;;;;5.80;3.73;;;20.00;99.90;;;;;;5022625;28;20979;-67
2023/09/26 09:05:20;;;;;;;5.83;3.93;;;20.10;99.90;;;;;;5019206;28;20491;-67
2023/09/26 09:07:47;;;;;;;4.33;3.40;;;20.10;99.90;;;;;;5022755;28;20486;-67
2023/09/26 09:10:16;;;;;;;3.47;3.23;;;20.20;99.90;;;;;;5018567;28;20460;-68
2023/09/26 09:12:47;;;;;;;4.70;3.90;;;20.40;99.90;;;;;;5017507;28;21013;-67
2023/09/26 09:15:28;;;;;;;4.57;4.03;;;20.50;99.90;;;;;;5019020;28;20586;-67
2023/09/26 09:17:55;;;;;;;4.43;3.63;;;20.60;99.90;;;;;;5021940;28;20462;-67
2023/09/26 09:20:32;;;;;;;4.40;3.73;;;20.70;99.90;;;;;;5020099;28;20478;-67
2023/09/26 09:23:01;;;;;;;3.83;3.40;;;20.80;99.90;;;;;;5017430;28;20556;-67
2023/09/26 09:25:31;;;;;;;4.23;3.27;;;20.90;99.90;;;;;;5017508;28;21018;-67
2023/09/26 09:28:00;;;;;;;4.13;3.80;;;21.10;99.90;;;;;;5017705;28;20469;-68
2023/09/26 09:30:29;;;;;;;3.20;2.90;;;21.20;99.90;;;;;;5017708;28;20836;-67
2023/09/26 09:32:57;;;;;;;3.60;3.30;;;21.30;99.90;;;;;;5017698;28;20472;-67
2023/09/26 09:35:24;;;;;;;4.03;3.03;;;21.40;99.90;;;;;;5020034;28;20464;-67
2023/09/26 09:37:51;;;;;;;3.97;3.60;;;21.50;99.90;;;;;;5017373;28;20468;-67
2023/09/26 09:40:19;;;;;;;4.77;3.57;;;21.60;99.90;;;;;;5020247;28;20465;-68
2023/09/26 09:42:47;;;;;;;4.30;3.20;;;21.70;99.90;;;;;;5017742;28;20475;-68
2023/09/26 09:45:14;;;;;;;3.40;3.10;;;21.80;99.90;;;;;;5017521;28;20867;-67
2023/09/26 09:47:45;;;;;;;3.60;3.30;;;21.90;99.90;;;;;;5017669;28;20978;-67
2023/09/26 09:50:13;;;;;;;3.80;2.60;;;22.10;99.90;;;;;;5018432;28;20476;-68
2023/09/26 09:52:43;;;;;;;3.27;2.93;;;22.20;99.90;;;;;;5017623;28;20467;-67
2023/09/26 09:55:16;;;;;;;3.93;3.43;;;22.30;99.90;;;;;;5018524;28;20469;-68
2023/09/26 09:57:47;;;;;;;6.13;3.73;;;22.30;99.90;;;;;;5017926;28;20534;-68
2023/09/26 10:00:14;;;;;;;3.37;3.07;;;22.40;99.90;;;;;;5018793;28;20973;-68
2023/09/26 10:02:45;;;;;;;4.07;3.67;;;22.50;99.90;;;;;;5017937;28;20464;-67
2023/09/26 10:05:14;;;;;;;3.40;2.90;;;22.50;99.90;;;;;;5019071;28;20485;-68
2023/09/26 10:07:42;;;;;;;8.13;3.17;;;22.70;99.90;;;;;;5017708;28;20949;-68
2023/09/26 10:10:12;;;;;;;4.40;3.47;;;22.90;99.90;;;;;;5021130;28;20493;-67
2023/09/26 10:12:40;;;;;;;3.90;3.50;;;22.90;99.90;;;;;;5020170;28;20512;-68
2023/09/26 10:15:10;;;;;;;2.63;2.43;;;23.10;99.90;;;;;;5018112;28;20469;-67
2023/09/26 10:17:36;;;;;;;2.97;2.73;;;23.20;99.90;;;;;;5019797;28;20464;-67
2023/09/26 10:20:07;;;;;;;3.17;2.80;;;23.30;99.90;;;;;;5018142;28;20476;-67
2023/09/26 10:22:35;;;;;;;3.10;2.67;;;23.40;99.90;;;;;;5019839;28;20488;-67
2023/09/26 10:25:04;;;;;;;3.20;2.90;;;23.50;99.90;;;;;;5017503;28;20472;-67
2023/09/26 10:27:41;;;;;;;2.90;2.70;;;23.60;99.90;;;;;;5020814;28;20460;-67
2023/09/26 10:30:10;;;;;;;2.80;2.47;;;23.70;99.90;;;;;;5018708;28;20465;-68
2023/09/26 10:32:40;;;;;;;2.43;2.23;;;23.80;99.90;;;;;;5019830;28;20575;-68
2023/09/26 10:35:28;;;;;;;3.07;2.77;;;24.00;99.90;;;;;;5018646;28;20516;-67
2023/09/26 10:38:01;;;;;;;2.83;2.00;;;24.10;99.90;;;;;;5022128;28;20480;-67
2023/09/26 10:40:28;;;;;;;2.60;2.40;;;24.20;99.90;;;;;;5018323;28;20468;-68
2023/09/26 10:42:54;;;;;;;2.03;1.83;;;24.40;99.90;;;;;;5018415;28;20465;-68
2023/09/26 10:45:21;;;;;;;2.33;2.13;;;24.40;99.90;;;;;;5019129;28;20472;-68
2023/09/26 10:47:48;;;;;;;3.30;2.87;;;24.40;99.90;;;;;;5023957;28;20462;-68
2023/09/26 10:50:15;;;;;;;2.80;2.60;;;24.40;99.90;;;;;;5016831;28;20469;-67
2023/09/26 10:52:47;;;;;;;3.47;2.87;;;24.60;99.90;;;;;;5019532;28;20480;-67
2023/09/26 10:55:15;;;;;;;2.93;2.67;;;24.60;99.90;;;;;;5016538;28;20527;-68
2023/09/26 10:57:43;;;;;;;2.57;2.37;;;24.70;99.90;;;;;;5020105;28;20468;-68
2023/09/26 11:00:11;;;;;;;3.43;2.60;;;24.70;99.90;;;;;;5016287;28;20461;-68
2023/09/26 11:02:38;;;;;;;2.83;2.20;;;24.80;99.90;;;;;;5020482;28;20480;-68
2023/09/26 11:05:08;;;;;;;2.37;2.17;;;24.80;99.90;;;;;;5015562;28;20469;-68
2023/09/26 11:07:35;;;;;;;1.70;1.60;;;24.90;99.90;;;;;;5020994;28;20488;-67
2023/09/26 11:10:03;;;;;;;2.13;1.97;;;25.10;99.90;;;;;;5015859;28;20980;-68
2023/09/26 11:12:30;;;;;;;1.80;1.67;;;25.10;99.90;;;;;;5022787;28;20492;-67
2023/09/26 11:14:58;;;;;;;2.20;1.93;;;25.10;99.90;;;;;;5019261;28;20937;-68
2023/09/26 11:17:27;;;;;;;2.93;1.83;;;25.20;99.90;;;;;;5022011;28;20835;-67
2023/09/26 11:19:56;;;;;;;2.70;1.60;;;25.20;99.90;;;;;;5016386;28;20497;-67
2023/09/26 11:22:23;;;;;;;2.00;1.80;;;25.30;99.90;;;;;;5021511;28;20476;-67
2023/09/26 11:24:49;;;;;;;2.17;1.50;;;25.40;99.90;;;;;;5016866;28;20457;-67
2023/09/26 11:27:18;;;;;;;2.23;1.87;;;25.40;99.90;;;;;;5021253;28;21004;-67
2023/09/26 11:29:46;;;;;;;1.80;1.63;;;25.50;99.90;;;;;;5018074;28;20465;-67
2023/09/26 11:32:14;;;;;;;1.73;1.50;;;25.40;99.90;;;;;;5020455;28;20680;-68
2023/09/26 11:34:41;;;;;;;3.03;2.07;;;25.30;99.90;;;;;;5027056;28;21684;-67
2023/09/26 11:37:09;;;;;;;1.90;1.73;;;25.30;99.90;;;;;;5023704;28;20484;-68
2023/09/26 11:39:36;;;;;;;2.20;2.00;;;25.30;99.90;;;;;;5028853;28;20495;-67
2023/09/26 11:42:04;;;;;;;2.70;2.00;;;25.40;99.90;;;;;;5023613;28;20489;-67
2023/09/26 11:44:33;;;;;;;4.40;2.17;;;25.50;99.90;;;;;;5024747;28;20496;-68
2023/09/26 11:47:00;;;;;;;3.30;1.83;;;25.60;99.90;;;;;;5023052;28;20515;-67
2023/09/26 11:49:28;;;;;;;1.60;1.50;;;25.70;99.90;;;;;;5022398;28;21013;-67
2023/09/26 11:51:55;;;;;;;1.63;1.47;;;25.70;99.90;;;;;;5022535;28;20489;-67
2023/09/26 11:54:23;;;;;;;1.70;1.47;;;25.80;99.90;;;;;;5025544;28;20980;-68
2023/09/26 11:56:50;;;;;;;2.13;1.80;;;25.90;99.90;;;;;;5023356;28;20467;-68
2023/09/26 11:59:16;;;;;;;1.50;1.40;;;26.10;99.90;;;;;;5025045;28;20458;-67
2023/09/26 12:01:44;;;;;;;1.50;1.40;;;26.30;99.90;;;;;;5024489;28;20492;-68
2023/09/26 12:04:13;;;;;;;1.87;1.67;;;26.40;99.90;;;;;;5024587;28;20492;-68
2023/09/26 12:06:41;;;;;;;1.80;1.70;;;26.40;99.90;;;;;;5025211;28;20491;-67
2023/09/26 12:09:10;;;;;;;1.70;1.50;;;26.50;99.90;;;;;;5023978;28;20553;-67
2023/09/26 12:11:37;;;;;;;2.13;1.30;;;26.40;99.90;;;;;;5026211;28;20891;-67
2023/09/26 12:14:04;;;;;;;1.40;1.30;;;26.40;99.90;;;;;;5023090;28;20965;-67
2023/09/26 12:16:31;;;;;;;1.67;1.43;;;26.30;99.90;;;;;;5026791;28;20456;-67
2023/09/26 12:18:59;;;;;;;1.30;1.20;;;26.30;99.90;;;;;;5023416;28;20470;-68
2023/09/26 12:21:26;;;;;;;1.60;1.50;;;26.30;99.90;;;;;;5026304;28;20476;-68
2023/09/26 12:23:53;;;;;;;1.43;1.33;;;26.40;99.90;;;;;;5023875;28;20464;-68
2023/09/26 12:26:20;;;;;;;1.40;1.20;;;26.40;99.90;;;;;;5026127;28;20870;-68
2023/09/26 12:28:47;;;;;;;1.47;1.30;;;26.40;99.90;;;;;;5024922;28;20460;-68
2023/09/26 12:31:13;;;;;;;2.33;1.50;;;26.40;99.90;;;;;;5024861;28;21017;-68
2023/09/26 12:33:40;;;;;;;1.63;1.40;;;26.40;99.90;;;;;;5026156;28;20471;-68
2023/09/26 12:36:08;;;;;;;1.40;1.27;;;26.40;99.90;;;;;;5023811;28;20942;-68
2023/09/26 12:38:35;;;;;;;1.80;1.70;;;26.40;99.90;;;;;;5027079;28;20475;-68
2023/09/26 12:41:02;;;;;;;1.40;1.30;;;26.50;99.90;;;;;;5023180;28;20484;-68
2023/09/26 12:43:29;;;;;;;1.50;1.30;;;26.50;99.90;;;;;;5026647;28;20457;-68
2023/09/26 12:45:56;;;;;;;1.60;1.30;;;26.50;99.90;;;;;;5023940;28;20464;-68
2023/09/26 12:48:24;;;;;;;2.77;1.57;;;26.50;99.90;;;;;;5026620;28;20461;-67
2023/09/26 12:50:50;;;;;;;1.60;1.50;;;26.50;99.90;;;;;;5024489;28;20614;-67
2023/09/26 12:53:19;;;;;;;1.30;1.20;;;26.50;99.90;;;;;;5025811;28;20488;-67
2023/09/26 12:55:45;;;;;;;1.73;1.63;;;26.50;99.90;;;;;;5025590;28;20460;-68
2023/09/26 12:58:12;;;;;;;1.40;1.23;;;26.60;99.90;;;;;;5025006;28;20496;-67
2023/09/26 13:00:39;;;;;;;1.40;1.17;;;26.60;99.90;;;;;;5027062;28;20487;-67
2023/09/26 13:03:06;;;;;;;1.33;1.23;;;26.50;99.90;;;;;;5024209;28;20462;-68
2023/09/26 13:05:32;;;;;;;2.10;1.60;;;26.50;99.90;;;;;;5026724;28;20472;-68
2023/09/26 13:07:59;;;;;;;2.20;1.80;;;26.40;99.90;;;;;;5024307;28;20491;-68
2023/09/26 13:10:27;;;;;;;1.57;1.43;;;26.40;99.90;;;;;;5027177;28;20487;-68
2023/09/26 13:12:54;;;;;;;1.90;1.50;;;26.40;99.90;;;;;;5025187;28;20486;-68
2023/09/26 13:15:21;;;;;;;1.47;1.37;;;26.40;99.90;;;;;;5023481;28;20465;-68
2023/09/26 13:17:47;;;;;;;1.70;1.60;;;26.40;99.90;;;;;;5023734;28;20464;-68
2023/09/26 13:20:14;;;;;;;1.43;1.30;;;26.40;99.90;;;;;;5023647;28;20763;-68
2023/09/26 13:22:42;;;;;;;2.00;1.80;;;26.40;99.90;;;;;;5023620;28;20472;-68
2023/09/26 13:25:09;;;;;;;1.53;1.43;;;26.20;99.90;;;;;;5026243;28;20492;-68
2023/09/26 13:27:37;;;;;;;2.60;1.43;;;26.20;99.90;;;;;;5022611;28;20487;-68
2023/09/26 13:30:06;;;;;;;1.73;1.43;;;26.10;99.90;;;;;;5024667;28;20469;-68
2023/09/26 13:32:32;;;;;;;1.53;1.40;;;26.20;99.90;;;;;;5022709;28;20481;-67
2023/09/26 13:35:01;;;;;;;1.43;1.30;;;26.30;99.90;;;;;;5024492;28;20964;-68
2023/09/26 13:37:27;;;;;;;1.30;1.20;;;26.30;99.90;;;;;;5021805;28;20456;-68
2023/09/26 13:39:54;;;;;;;2.00;1.50;;;26.40;99.90;;;;;;5027587;28;20460;-68
2023/09/26 13:42:21;;;;;;;1.40;1.27;;;26.30;99.90;;;;;;5021941;28;20477;-68
2023/09/26 13:44:50;;;;;;;1.50;1.40;;;26.30;99.90;;;;;;5026393;28;20460;-68
2023/09/26 13:47:17;;;;;;;1.63;1.50;;;26.40;99.90;;;;;;5026807;28;21005;-68
2023/09/26 13:49:44;;;;;;;1.30;1.20;;;26.40;99.90;;;;;;5027851;28;20461;-68
2023/09/26 13:52:11;;;;;;;1.30;1.20;;;26.50;99.90;;;;;;5021122;28;20485;-68
2023/09/26 13:54:37;;;;;;;1.53;1.43;;;26.50;99.90;;;;;;5033818;28;20460;-68
2023/09/26 13:57:04;;;;;;;1.30;1.20;;;26.50;99.90;;;;;;5039865;28;20931;-68
2023/09/26 13:59:31;;;;;;;1.67;1.30;;;26.50;99.90;;;;;;5027462;28;20467;-68
2023/09/26 14:01:59;;;;;;;3.60;1.30;;;26.50;99.90;;;;;;5022327;28;20476;-68
2023/09/26 14:04:26;;;;;;;1.63;1.33;;;26.50;99.90;;;;;;5026992;28;20464;-68
2023/09/26 14:06:52;;;;;;;1.93;1.30;;;26.50;99.90;;;;;;5023226;28;20601;-68
2023/09/26 14:09:19;;;;;;;1.47;1.20;;;26.50;99.90;;;;;;5026739;28;20462;-68
2023/09/26 14:11:46;;;;;;;1.43;1.33;;;26.40;99.90;;;;;;5024415;28;20484;-68
2023/09/26 14:14:13;;;;;;;1.93;1.73;;;26.30;99.90;;;;;;5027470;28;20469;-68
2023/09/26 14:16:40;;;;;;;1.30;1.20;;;26.40;99.90;;;;;;5025019;28;20460;-68
2023/09/26 14:19:08;;;;;;;1.50;1.33;;;26.30;99.90;;;;;;5025544;28;20456;-68
2023/09/26 14:21:35;;;;;;;1.57;1.47;;;26.30;99.90;;;;;;5025089;28;20492;-68
2023/09/26 14:24:01;;;;;;;2.90;1.67;;;26.30;99.90;;;;;;5025636;28;20820;-68
2023/09/26 14:26:28;;;;;;;1.90;1.20;;;26.30;99.90;;;;;;5025454;28;20462;-68
2023/09/26 14:29:00;;;;;;;1.40;1.30;;;26.30;99.90;;;;;;5046545;28;21010;-68
2023/09/26 14:31:27;;;;;;;1.80;1.50;;;26.30;99.90;;;;;;5025842;28;20895;-68
2023/09/26 14:33:54;;;;;;;1.77;1.47;;;26.20;99.90;;;;;;5026824;28;21127;-68
2023/09/26 14:36:23;;;;;;;1.60;1.23;;;26.20;99.90;;;;;;5025185;28;20469;-68
2023/09/26 14:38:50;;;;;;;1.50;1.40;;;26.10;99.90;;;;;;5028603;28;20488;-68
2023/09/26 14:41:18;;;;;;;1.60;1.30;;;26.00;99.90;;;;;;5025954;28;20511;-68
2023/09/26 14:43:45;;;;;;;1.30;1.10;;;26.00;99.90;;;;;;5029888;28;20460;-68
2023/09/26 14:46:12;;;;;;;1.23;1.13;;;26.00;99.90;;;;;;5026600;28;21167;-68
2023/09/26 14:48:39;;;;;;;1.27;1.17;;;25.90;99.90;;;;;;5031642;28;20491;-68
2023/09/26 14:51:06;;;;;;;1.40;1.30;;;25.90;99.90;;;;;;5025197;28;20492;-68
2023/09/26 14:53:34;;;;;;;1.77;1.30;;;25.80;99.90;;;;;;5028577;28;20469;-68
2023/09/26 14:56:01;;;;;;;1.87;1.47;;;25.80;99.90;;;;;;5025300;28;20467;-68
2023/09/26 14:58:28;;;;;;;1.27;1.17;;;25.70;99.90;;;;;;5021297;28;20457;-68
2023/09/26 15:00:54;;;;;;;1.50;1.40;;;25.70;99.90;;;;;;5026921;28;20483;-68
2023/09/26 15:03:21;;;;;;;1.23;1.10;;;25.60;99.90;;;;;;5021935;28;20461;-68
2023/09/26 15:05:48;;;;;;;1.33;1.23;;;25.60;99.90;;;;;;5023696;28;20453;-67
2023/09/26 15:08:14;;;;;;;1.20;1.10;;;25.60;99.90;;;;;;5023490;28;20496;-67
2023/09/26 15:10:42;;;;;;;1.37;1.20;;;25.60;99.90;;;;;;5027886;28;21004;-67
2023/09/26 15:13:11;;;;;;;2.03;1.20;;;25.50;99.90;;;;;;5025769;28;20499;-67
2023/09/26 15:15:38;;;;;;;1.93;1.23;;;25.40;99.90;;;;;;5027823;28;20543;-68
2023/09/26 15:18:05;;;;;;;1.30;1.20;;;25.40;99.90;;;;;;5018585;28;20859;-67
2023/09/26 15:20:32;;;;;;;2.23;1.43;;;25.30;99.90;;;;;;5028190;28;20476;-67
2023/09/26 15:22:59;;;;;;;1.40;1.30;;;25.20;99.90;;;;;;5020051;28;20469;-68
2023/09/26 15:25:26;;;;;;;1.53;1.43;;;25.10;99.90;;;;;;5027882;28;20460;-68
2023/09/26 15:27:54;;;;;;;1.67;1.57;;;25.00;99.90;;;;;;5021466;28;20867;-68
2023/09/26 15:30:21;;;;;;;1.53;1.30;;;24.90;99.90;;;;;;5027298;28;20468;-68
2023/09/26 15:32:48;;;;;;;4.30;1.93;;;24.80;99.90;;;;;;5026284;28;20464;-68
2023/09/26 15:35:15;;;;;;;1.73;1.60;;;24.70;99.90;;;;;;5027083;28;20471;-68
2023/09/26 15:37:42;;;;;;;1.40;1.30;;;24.60;99.90;;;;;;5027646;28;20461;-69
2023/09/26 15:40:12;;;;;;;1.40;1.30;;;24.50;99.90;;;;;;5027411;28;21386;-68
2023/09/26 15:42:39;;;;;;;1.80;1.40;;;24.30;99.90;;;;;;5024074;28;20552;-68
2023/09/26 15:45:08;;;;;;;1.70;1.50;;;24.20;99.90;;;;;;5027642;28;20969;-68
2023/09/26 15:47:35;;;;;;;2.23;1.50;;;24.00;99.90;;;;;;5025108;28;21021;-68
2023/09/26 15:50:02;;;;;;;1.70;1.60;;;23.90;99.90;;;;;;5027402;28;20475;-69
2023/09/26 15:52:29;;;;;;;2.20;2.00;;;23.80;99.90;;;;;;5024203;28;20480;-68
2023/09/26 15:54:55;;;;;;;2.00;1.80;;;23.70;99.90;;;;;;5020504;28;20472;-68
2023/09/26 15:57:22;;;;;;;2.30;2.10;;;23.60;99.90;;;;;;5026052;28;20475;-68
2023/09/26 15:59:49;;;;;;;2.33;2.13;;;23.50;99.90;;;;;;5023644;28;20800;-68
2023/09/26 16:02:17;;;;;;;2.20;2.00;;;23.40;99.90;;;;;;5027121;28;20484;-68
2023/09/26 16:04:45;;;;;;;2.43;2.23;;;23.30;99.90;;;;;;5022140;28;20813;-68
2023/09/26 16:07:12;;;;;;;3.07;2.50;;;23.10;99.90;;;;;;5027432;28;20492;-68
2023/09/26 16:09:38;;;;;;;2.83;2.60;;;23.00;99.90;;;;;;5023507;28;20848;-68
2023/09/26 16:12:07;;;;;;;2.80;2.30;;;22.90;99.90;;;;;;5027242;28;20489;-68
2023/09/26 16:14:34;;;;;;;2.37;2.17;;;22.70;99.90;;;;;;5022950;28;20903;-68
2023/09/26 16:17:01;;;;;;;2.30;2.10;;;22.60;99.90;;;;;;5028184;28;20984;-68
2023/09/26 16:19:30;;;;;;;1.90;1.70;;;22.50;99.90;;;;;;5021775;28;20476;-68